sensor_id;sensor_type;location;lat;lon;timestamp;pressure;altitude;pressure_sealevel;temperature;humidity
13080;BME280;6606;49.154;9.280;2023-02-13T00:00:01;101733.59;;;2.41;100.00
13080;BME280;6606;49.154;9.280;2023-02-13T00:02:45;101737.22;;;2.51;100.00
13080;BME280;6606;49.154;9.280;2023-02-13T00:05:27;101729.56;;;2.62;100.00
13080;BME280;6606;49.154;9.280;2023-02-13T00:08:10;101727.00;;;2.65;100.00
13080;BME280;6606;49.154;9.280;2023-02-13T00:10:51;101725.13;;;2.58;100.00
13080;BME280;6606;49.154;9.280;2023-02-13T00:13:33;101724.25;;;2.59;100.00
13080;BME280;6606;49.154;9.280;2023-02-13T00:16:15;101722.44;;;2.53;100.00
13080;BME280;6606;49.154;9.280;2023-02-13T00:18:57;101725.25;;;2.67;100.00
13080;BME280;6606;49.154;9.280;2023-02-13T00:21:39;101723.53;;;2.69;100.00
13080;BME280;6606;49.154;9.280;2023-02-13T00:24:22;101725.31;;;2.72;100.00
13080;BME280;6606;49.154;9.280;2023-02-13T00:27:04;101723.69;;;2.80;100.00
13080;BME280;6606;49.154;9.280;2023-02-13T00:29:45;101717.56;;;2.78;100.00
13080;BME280;6606;49.154;9.280;2023-02-13T00:32:27;101716.78;;;2.85;100.00
13080;BME280;6606;49.154;9.280;2023-02-13T00:35:09;101717.47;;;2.72;100.00
13080;BME280;6606;49.154;9.280;2023-02-13T00:37:50;101710.50;;;2.72;100.00
13080;BME280;6606;49.154;9.280;2023-02-13T00:40:33;101708.78;;;2.73;100.00
13080;BME280;6606;49.154;9.280;2023-02-13T00:43:15;101707.31;;;2.93;100.00
13080;BME280;6606;49.154;9.280;2023-02-13T00:45:57;101709.09;;;2.94;100.00
13080;BME280;6606;49.154;9.280;2023-02-13T00:48:39;101700.50;;;3.04;100.00
13080;BME280;6606;49.154;9.280;2023-02-13T00:51:21;101700.63;;;3.17;100.00
13080;BME280;6606;49.154;9.280;2023-02-13T00:54:02;101714.44;;;3.03;100.00
13080;BME280;6606;49.154;9.280;2023-02-13T00:56:46;101712.78;;;3.12;100.00
13080;BME280;6606;49.154;9.280;2023-02-13T00:59:27;101710.31;;;3.22;100.00
13080;BME280;6606;49.154;9.280;2023-02-13T01:02:09;101715.44;;;3.13;100.00
13080;BME280;6606;49.154;9.280;2023-02-13T01:04:51;101712.72;;;3.05;100.00
13080;BME280;6606;49.154;9.280;2023-02-13T01:07:32;101719.00;;;3.20;100.00
13080;BME280;6606;49.154;9.280;2023-02-13T01:10:14;101715.59;;;3.24;100.00
13080;BME280;6606;49.154;9.280;2023-02-13T01:12:58;101712.91;;;3.18;100.00
13080;BME280;6606;49.154;9.280;2023-02-13T01:15:40;101709.28;;;3.09;100.00
13080;BME280;6606;49.154;9.280;2023-02-13T01:18:23;101714.56;;;3.13;100.00
13080;BME280;6606;49.154;9.280;2023-02-13T01:21:06;101713.66;;;3.12;100.00
13080;BME280;6606;49.154;9.280;2023-02-13T01:23:49;101719.00;;;3.18;100.00
13080;BME280;6606;49.154;9.280;2023-02-13T01:26:34;101714.53;;;3.11;100.00
13080;BME280;6606;49.154;9.280;2023-02-13T01:29:17;101708.34;;;3.04;100.00
13080;BME280;6606;49.154;9.280;2023-02-13T01:31:58;101709.38;;;3.16;100.00
13080;BME280;6606;49.154;9.280;2023-02-13T01:34:42;101702.41;;;3.18;100.00
13080;BME280;6606;49.154;9.280;2023-02-13T01:37:24;101706.81;;;3.22;100.00
13080;BME280;6606;49.154;9.280;2023-02-13T01:40:09;101707.75;;;3.27;100.00
13080;BME280;6606;49.154;9.280;2023-02-13T01:42:51;101700.56;;;3.11;100.00
13080;BME280;6606;49.154;9.280;2023-02-13T01:45:34;101699.69;;;3.10;100.00
13080;BME280;6606;49.154;9.280;2023-02-13T01:48:18;101697.03;;;3.08;100.00
13080;BME280;6606;49.154;9.280;2023-02-13T01:51:05;101698.59;;;2.94;100.00
13080;BME280;6606;49.154;9.280;2023-02-13T01:53:52;101699.34;;;2.84;100.00
13080;BME280;6606;49.154;9.280;2023-02-13T01:56:40;101693.78;;;2.62;100.00
13080;BME280;6606;49.154;9.280;2023-02-13T01:59:30;101697.13;;;2.54;100.00
13080;BME280;6606;49.154;9.280;2023-02-13T02:02:16;101691.38;;;2.76;100.00
13080;BME280;6606;49.154;9.280;2023-02-13T02:04:58;101696.72;;;2.84;100.00
13080;BME280;6606;49.154;9.280;2023-02-13T02:07:41;101690.50;;;2.76;100.00
13080;BME280;6606;49.154;9.280;2023-02-13T02:10:23;101692.31;;;2.83;100.00
13080;BME280;6606;49.154;9.280;2023-02-13T02:13:08;101694.06;;;2.81;100.00
13080;BME280;6606;49.154;9.280;2023-02-13T02:15:53;101692.13;;;2.69;100.00
13080;BME280;6606;49.154;9.280;2023-02-13T02:18:36;101688.63;;;2.69;100.00
13080;BME280;6606;49.154;9.280;2023-02-13T02:21:54;101681.81;;;2.78;100.00
13080;BME280;6606;49.154;9.280;2023-02-13T02:28:13;101681.56;;;2.64;100.00
13080;BME280;6606;49.154;9.280;2023-02-13T02:34:17;101685.28;;;2.80;100.00
13080;BME280;6606;49.154;9.280;2023-02-13T02:37:12;101689.59;;;2.74;100.00
13080;BME280;6606;49.154;9.280;2023-02-13T02:40:15;101694.00;;;2.78;100.00
13080;BME280;6606;49.154;9.280;2023-02-13T02:43:12;101687.91;;;2.79;100.00
13080;BME280;6606;49.154;9.280;2023-02-13T02:45:59;101689.63;;;2.77;100.00
13080;BME280;6606;49.154;9.280;2023-02-13T02:48:48;101685.97;;;2.67;100.00
13080;BME280;6606;49.154;9.280;2023-02-13T02:52:02;101693.66;;;2.55;100.00
13080;BME280;6606;49.154;9.280;2023-02-13T02:54:49;101685.94;;;2.62;100.00
13080;BME280;6606;49.154;9.280;2023-02-13T02:57:58;101682.22;;;2.48;100.00
13080;BME280;6606;49.154;9.280;2023-02-13T03:01:01;101689.06;;;2.40;100.00
13080;BME280;6606;49.154;9.280;2023-02-13T03:04:03;101687.28;;;2.36;100.00
13080;BME280;6606;49.154;9.280;2023-02-13T03:07:06;101692.38;;;2.30;100.00
13080;BME280;6606;49.154;9.280;2023-02-13T03:09:52;101692.50;;;2.36;100.00
13080;BME280;6606;49.154;9.280;2023-02-13T03:13:00;101698.22;;;2.12;100.00
13080;BME280;6606;49.154;9.280;2023-02-13T03:16:02;101699.03;;;2.09;100.00
13080;BME280;6606;49.154;9.280;2023-02-13T03:19:01;101700.69;;;2.04;100.00
13080;BME280;6606;49.154;9.280;2023-02-13T03:22:07;101701.03;;;2.24;100.00
13080;BME280;6606;49.154;9.280;2023-02-13T03:25:05;101694.69;;;2.11;100.00
13080;BME280;6606;49.154;9.280;2023-02-13T03:27:50;101712.09;;;2.08;100.00
13080;BME280;6606;49.154;9.280;2023-02-13T03:30:57;101706.72;;;1.98;100.00
13080;BME280;6606;49.154;9.280;2023-02-13T03:33:53;101712.53;;;1.84;100.00
13080;BME280;6606;49.154;9.280;2023-02-13T03:36:44;101711.66;;;1.83;100.00
13080;BME280;6606;49.154;9.280;2023-02-13T03:39:55;101717.66;;;1.78;100.00
13080;BME280;6606;49.154;9.280;2023-02-13T03:42:43;101714.16;;;1.79;100.00
13080;BME280;6606;49.154;9.280;2023-02-13T03:45:28;101719.44;;;1.80;100.00
13080;BME280;6606;49.154;9.280;2023-02-13T03:48:30;101723.84;;;1.84;100.00
13080;BME280;6606;49.154;9.280;2023-02-13T03:51:32;101730.84;;;1.85;100.00
13080;BME280;6606;49.154;9.280;2023-02-13T03:54:20;101730.94;;;1.90;100.00
13080;BME280;6606;49.154;9.280;2023-02-13T03:57:19;101734.31;;;1.84;100.00
13080;BME280;6606;49.154;9.280;2023-02-13T04:00:20;101738.41;;;1.70;100.00
13080;BME280;6606;49.154;9.280;2023-02-13T04:03:07;101734.03;;;1.69;100.00
13080;BME280;6606;49.154;9.280;2023-02-13T04:05:54;101737.53;;;1.69;100.00
13080;BME280;6606;49.154;9.280;2023-02-13T04:08:38;101732.94;;;1.58;100.00
13080;BME280;6606;49.154;9.280;2023-02-13T04:11:24;101739.03;;;1.58;100.00
13080;BME280;6606;49.154;9.280;2023-02-13T04:14:14;101739.78;;;1.51;100.00
13080;BME280;6606;49.154;9.280;2023-02-13T04:17:02;101733.69;;;1.52;100.00
13080;BME280;6606;49.154;9.280;2023-02-13T04:19:45;101737.19;;;1.52;100.00
13080;BME280;6606;49.154;9.280;2023-02-13T04:22:27;101736.94;;;1.40;100.00
13080;BME280;6606;49.154;9.280;2023-02-13T04:25:10;101745.47;;;1.31;100.00
13080;BME280;6606;49.154;9.280;2023-02-13T04:27:52;101737.88;;;1.44;100.00
13080;BME280;6606;49.154;9.280;2023-02-13T04:30:35;101739.63;;;1.45;100.00
13080;BME280;6606;49.154;9.280;2023-02-13T04:33:16;101742.34;;;1.49;100.00
13080;BME280;6606;49.154;9.280;2023-02-13T04:35:58;101750.16;;;1.48;100.00
13080;BME280;6606;49.154;9.280;2023-02-13T04:38:40;101735.44;;;1.51;100.00
13080;BME280;6606;49.154;9.280;2023-02-13T04:41:21;101741.66;;;1.58;100.00
13080;BME280;6606;49.154;9.280;2023-02-13T04:44:03;101736.88;;;1.37;100.00
13080;BME280;6606;49.154;9.280;2023-02-13T04:46:47;101734.72;;;1.18;100.00
13080;BME280;6606;49.154;9.280;2023-02-13T04:49:28;101730.25;;;1.12;100.00
13080;BME280;6606;49.154;9.280;2023-02-13T04:52:10;101741.09;;;1.30;100.00
13080;BME280;6606;49.154;9.280;2023-02-13T04:54:52;101736.31;;;1.52;100.00
13080;BME280;6606;49.154;9.280;2023-02-13T04:57:33;101739.84;;;1.54;100.00
13080;BME280;6606;49.154;9.280;2023-02-13T05:00:16;101731.19;;;1.58;100.00
13080;BME280;6606;49.154;9.280;2023-02-13T05:03:05;101741.34;;;1.43;100.00
13080;BME280;6606;49.154;9.280;2023-02-13T05:05:47;101734.41;;;1.43;100.00
13080;BME280;6606;49.154;9.280;2023-02-13T05:08:29;101737.84;;;1.41;100.00
13080;BME280;6606;49.154;9.280;2023-02-13T05:11:11;101746.56;;;1.43;100.00
13080;BME280;6606;49.154;9.280;2023-02-13T05:13:52;101741.38;;;1.44;100.00
13080;BME280;6606;49.154;9.280;2023-02-13T05:16:34;101735.28;;;1.45;100.00
13080;BME280;6606;49.154;9.280;2023-02-13T05:19:17;101743.44;;;1.18;100.00
13080;BME280;6606;49.154;9.280;2023-02-13T05:21:59;101743.38;;;1.15;100.00
13080;BME280;6606;49.154;9.280;2023-02-13T05:24:58;101732.75;;;1.07;100.00
13080;BME280;6606;49.154;9.280;2023-02-13T05:27:39;101747.34;;;0.98;100.00
13080;BME280;6606;49.154;9.280;2023-02-13T05:30:21;101741.34;;;1.02;100.00
13080;BME280;6606;49.154;9.280;2023-02-13T05:33:03;101736.28;;;1.09;100.00
13080;BME280;6606;49.154;9.280;2023-02-13T05:35:46;101744.66;;;0.95;100.00
13080;BME280;6606;49.154;9.280;2023-02-13T05:38:28;101735.06;;;0.94;100.00
13080;BME280;6606;49.154;9.280;2023-02-13T05:41:10;101736.56;;;0.82;100.00
13080;BME280;6606;49.154;9.280;2023-02-13T05:43:52;101742.16;;;0.99;100.00
13080;BME280;6606;49.154;9.280;2023-02-13T05:46:36;101740.06;;;0.84;100.00
13080;BME280;6606;49.154;9.280;2023-02-13T05:49:18;101736.06;;;0.61;100.00
13080;BME280;6606;49.154;9.280;2023-02-13T05:52:01;101740.94;;;0.83;100.00
13080;BME280;6606;49.154;9.280;2023-02-13T05:54:43;101736.22;;;0.69;100.00
13080;BME280;6606;49.154;9.280;2023-02-13T05:57:24;101741.44;;;0.67;100.00
13080;BME280;6606;49.154;9.280;2023-02-13T06:00:07;101747.59;;;0.71;100.00
13080;BME280;6606;49.154;9.280;2023-02-13T06:02:49;101739.94;;;0.78;100.00
13080;BME280;6606;49.154;9.280;2023-02-13T06:05:31;101739.00;;;0.75;100.00
13080;BME280;6606;49.154;9.280;2023-02-13T06:08:14;101744.34;;;0.81;100.00
13080;BME280;6606;49.154;9.280;2023-02-13T06:10:55;101742.47;;;0.75;100.00
13080;BME280;6606;49.154;9.280;2023-02-13T06:13:37;101735.41;;;0.71;100.00
13080;BME280;6606;49.154;9.280;2023-02-13T06:16:20;101742.25;;;0.66;100.00
13080;BME280;6606;49.154;9.280;2023-02-13T06:19:02;101739.50;;;0.60;100.00
13080;BME280;6606;49.154;9.280;2023-02-13T06:21:44;101740.00;;;0.43;100.00
13080;BME280;6606;49.154;9.280;2023-02-13T06:24:27;101741.19;;;0.58;100.00
13080;BME280;6606;49.154;9.280;2023-02-13T06:27:09;101744.97;;;0.69;100.00
13080;BME280;6606;49.154;9.280;2023-02-13T06:29:50;101746.41;;;0.56;100.00
13080;BME280;6606;49.154;9.280;2023-02-13T06:32:32;101746.13;;;0.46;100.00
13080;BME280;6606;49.154;9.280;2023-02-13T06:35:14;101746.13;;;0.46;100.00
13080;BME280;6606;49.154;9.280;2023-02-13T06:37:56;101745.50;;;0.56;100.00
13080;BME280;6606;49.154;9.280;2023-02-13T06:40:39;101750.00;;;0.63;100.00
13080;BME280;6606;49.154;9.280;2023-02-13T06:43:20;101748.75;;;0.46;100.00
13080;BME280;6606;49.154;9.280;2023-02-13T06:46:03;101744.28;;;0.41;100.00
13080;BME280;6606;49.154;9.280;2023-02-13T06:48:45;101749.97;;;0.25;100.00
13080;BME280;6606;49.154;9.280;2023-02-13T06:51:27;101756.63;;;0.14;100.00
13080;BME280;6606;49.154;9.280;2023-02-13T06:54:09;101761.13;;;0.21;100.00
13080;BME280;6606;49.154;9.280;2023-02-13T06:56:52;101764.34;;;0.44;100.00
13080;BME280;6606;49.154;9.280;2023-02-13T06:59:33;101755.09;;;0.57;100.00
13080;BME280;6606;49.154;9.280;2023-02-13T07:02:15;101760.19;;;0.52;100.00
13080;BME280;6606;49.154;9.280;2023-02-13T07:04:57;101760.97;;;0.48;100.00
13080;BME280;6606;49.154;9.280;2023-02-13T07:07:39;101770.75;;;0.57;100.00
13080;BME280;6606;49.154;9.280;2023-02-13T07:10:22;101764.31;;;0.42;100.00
13080;BME280;6606;49.154;9.280;2023-02-13T07:13:05;101762.22;;;0.64;100.00
13080;BME280;6606;49.154;9.280;2023-02-13T07:15:47;101770.13;;;0.67;100.00
13080;BME280;6606;49.154;9.280;2023-02-13T07:18:29;101762.22;;;0.64;100.00
13080;BME280;6606;49.154;9.280;2023-02-13T07:21:11;101763.41;;;0.77;100.00
13080;BME280;6606;49.154;9.280;2023-02-13T07:23:52;101764.34;;;0.80;100.00
13080;BME280;6606;49.154;9.280;2023-02-13T07:26:34;101770.25;;;0.73;100.00
13080;BME280;6606;49.154;9.280;2023-02-13T07:29:17;101772.50;;;0.94;100.00
13080;BME280;6606;49.154;9.280;2023-02-13T07:31:59;101769.00;;;0.94;100.00
13080;BME280;6606;49.154;9.280;2023-02-13T07:34:41;101766.34;;;0.91;100.00
13080;BME280;6606;49.154;9.280;2023-02-13T07:37:22;101771.16;;;1.12;100.00
13080;BME280;6606;49.154;9.280;2023-02-13T07:40:06;101776.34;;;1.10;100.00
13080;BME280;6606;49.154;9.280;2023-02-13T07:42:48;101777.41;;;1.18;100.00
13080;BME280;6606;49.154;9.280;2023-02-13T07:45:31;101771.63;;;1.33;100.00
13080;BME280;6606;49.154;9.280;2023-02-13T07:48:12;101776.97;;;1.38;100.00
13080;BME280;6606;49.154;9.280;2023-02-13T07:50:58;101778.72;;;1.40;100.00
13080;BME280;6606;49.154;9.280;2023-02-13T07:53:39;101778.91;;;1.48;100.00
13080;BME280;6606;49.154;9.280;2023-02-13T07:56:21;101777.84;;;1.40;100.00
13080;BME280;6606;49.154;9.280;2023-02-13T07:59:03;101782.66;;;1.61;100.00
13080;BME280;6606;49.154;9.280;2023-02-13T08:01:46;101785.16;;;1.56;100.00
13080;BME280;6606;49.154;9.280;2023-02-13T08:04:28;101784.44;;;1.63;100.00
13080;BME280;6606;49.154;9.280;2023-02-13T08:07:09;101783.50;;;1.60;100.00
13080;BME280;6606;49.154;9.280;2023-02-13T08:09:51;101784.75;;;1.79;100.00
13080;BME280;6606;49.154;9.280;2023-02-13T08:12:50;101775.47;;;1.94;100.00
13080;BME280;6606;49.154;9.280;2023-02-13T08:15:32;101773.53;;;1.83;100.00
13080;BME280;6606;49.154;9.280;2023-02-13T08:18:16;101774.41;;;1.83;100.00
13080;BME280;6606;49.154;9.280;2023-02-13T08:21:00;101772.25;;;1.64;100.00
13080;BME280;6606;49.154;9.280;2023-02-13T08:23:42;101771.63;;;1.75;100.00
13080;BME280;6606;49.154;9.280;2023-02-13T08:26:23;101771.31;;;2.04;100.00
13080;BME280;6606;49.154;9.280;2023-02-13T08:29:05;101769.88;;;2.22;100.00
13080;BME280;6606;49.154;9.280;2023-02-13T08:31:47;101765.50;;;2.20;100.00
13080;BME280;6606;49.154;9.280;2023-02-13T08:34:30;101767.25;;;2.22;100.00
13080;BME280;6606;49.154;9.280;2023-02-13T08:37:11;101772.47;;;2.22;100.00
13080;BME280;6606;49.154;9.280;2023-02-13T08:39:53;101763.84;;;2.27;100.00
13080;BME280;6606;49.154;9.280;2023-02-13T08:42:35;101764.94;;;2.38;100.00
13080;BME280;6606;49.154;9.280;2023-02-13T08:45:17;101764.19;;;2.46;100.00
13080;BME280;6606;49.154;9.280;2023-02-13T08:47:59;101763.53;;;2.59;100.00
13080;BME280;6606;49.154;9.280;2023-02-13T08:50:44;101768.09;;;2.71;100.00
13080;BME280;6606;49.154;9.280;2023-02-13T08:53:26;101760.97;;;2.63;100.00
13080;BME280;6606;49.154;9.280;2023-02-13T08:56:08;101771.72;;;2.79;100.00
13080;BME280;6606;49.154;9.280;2023-02-13T08:58:50;101779.00;;;3.01;100.00
13080;BME280;6606;49.154;9.280;2023-02-13T09:01:32;101775.03;;;3.28;100.00
13080;BME280;6606;49.154;9.280;2023-02-13T09:04:13;101770.13;;;3.54;100.00
13080;BME280;6606;49.154;9.280;2023-02-13T09:06:58;101776.31;;;3.58;100.00
13080;BME280;6606;49.154;9.280;2023-02-13T09:09:40;101766.91;;;3.78;100.00
13080;BME280;6606;49.154;9.280;2023-02-13T09:12:22;101769.59;;;3.83;100.00
13080;BME280;6606;49.154;9.280;2023-02-13T09:15:04;101773.28;;;4.02;100.00
13080;BME280;6606;49.154;9.280;2023-02-13T09:17:46;101776.78;;;4.01;100.00
13080;BME280;6606;49.154;9.280;2023-02-13T09:20:28;101780.47;;;4.18;100.00
13080;BME280;6606;49.154;9.280;2023-02-13T09:23:11;101773.78;;;4.51;100.00
13080;BME280;6606;49.154;9.280;2023-02-13T09:25:53;101776.59;;;4.75;100.00
13080;BME280;6606;49.154;9.280;2023-02-13T09:28:35;101780.09;;;4.71;100.00
13080;BME280;6606;49.154;9.280;2023-02-13T09:31:18;101779.19;;;4.69;100.00
13080;BME280;6606;49.154;9.280;2023-02-13T09:34:00;101784.63;;;4.97;100.00
13080;BME280;6606;49.154;9.280;2023-02-13T09:36:42;101774.88;;;4.80;100.00
13080;BME280;6606;49.154;9.280;2023-02-13T09:39:25;101770.56;;;4.89;100.00
13080;BME280;6606;49.154;9.280;2023-02-13T09:42:16;101778.41;;;4.82;100.00
13080;BME280;6606;49.154;9.280;2023-02-13T09:45:02;101774.06;;;4.88;100.00
13080;BME280;6606;49.154;9.280;2023-02-13T09:47:47;101773.22;;;4.95;100.00
13080;BME280;6606;49.154;9.280;2023-02-13T09:50:30;101774.13;;;5.00;100.00
13080;BME280;6606;49.154;9.280;2023-02-13T09:53:18;101773.13;;;4.79;100.00
13080;BME280;6606;49.154;9.280;2023-02-13T09:56:09;101774.13;;;5.00;100.00
13080;BME280;6606;49.154;9.280;2023-02-13T09:58:57;101765.41;;;5.01;100.00
13080;BME280;6606;49.154;9.280;2023-02-13T10:01:44;101764.72;;;5.33;100.00
13080;BME280;6606;49.154;9.280;2023-02-13T10:04:31;101766.59;;;5.63;100.00
13080;BME280;6606;49.154;9.280;2023-02-13T10:07:21;101765.63;;;5.47;100.00
13080;BME280;6606;49.154;9.280;2023-02-13T10:10:14;101758.78;;;5.86;100.00
13080;BME280;6606;49.154;9.280;2023-02-13T10:13:12;101759.66;;;5.88;100.00
13080;BME280;6606;49.154;9.280;2023-02-13T10:16:05;101763.28;;;6.25;100.00
13080;BME280;6606;49.154;9.280;2023-02-13T10:18:52;101757.16;;;6.49;100.00
13080;BME280;6606;49.154;9.280;2023-02-13T10:21:39;101748.38;;;6.56;100.00
13080;BME280;6606;49.154;9.280;2023-02-13T10:24:29;101737.81;;;6.69;100.00
13080;BME280;6606;49.154;9.280;2023-02-13T10:27:18;101740.47;;;6.63;100.00
13080;BME280;6606;49.154;9.280;2023-02-13T10:30:05;101745.72;;;6.81;100.00
13080;BME280;6606;49.154;9.280;2023-02-13T10:32:57;101739.56;;;6.91;100.00
13080;BME280;6606;49.154;9.280;2023-02-13T10:35:59;101734.25;;;7.10;100.00
13080;BME280;6606;49.154;9.280;2023-02-13T10:38:44;101747.38;;;7.26;100.00
13080;BME280;6606;49.154;9.280;2023-02-13T10:41:38;101732.41;;;7.30;100.00
13080;BME280;6606;49.154;9.280;2023-02-13T10:44:32;101720.97;;;7.31;100.00
13080;BME280;6606;49.154;9.280;2023-02-13T10:47:28;101726.13;;;7.59;100.00
13080;BME280;6606;49.154;9.280;2023-02-13T10:50:23;101711.22;;;7.55;100.00
13080;BME280;6606;49.154;9.280;2023-02-13T10:53:13;101705.13;;;7.34;100.00
13080;BME280;6606;49.154;9.280;2023-02-13T10:56:09;101710.19;;;7.79;100.00
13080;BME280;6606;49.154;9.280;2023-02-13T10:59:05;101700.56;;;7.71;100.00
13080;BME280;6606;49.154;9.280;2023-02-13T11:01:53;101698.63;;;8.00;100.00
13080;BME280;6606;49.154;9.280;2023-02-13T11:04:38;101705.69;;;7.95;100.00
13080;BME280;6606;49.154;9.280;2023-02-13T11:07:22;101700.34;;;8.04;100.00
13080;BME280;6606;49.154;9.280;2023-02-13T11:10:14;101700.22;;;8.19;100.00
13080;BME280;6606;49.154;9.280;2023-02-13T11:12:57;101696.81;;;8.06;100.00
13080;BME280;6606;49.154;9.280;2023-02-13T11:15:57;101689.59;;;8.27;100.00
13080;BME280;6606;49.154;9.280;2023-02-13T11:18:40;101690.41;;;8.35;100.00
13080;BME280;6606;49.154;9.280;2023-02-13T11:21:32;101697.31;;;8.56;100.00
13080;BME280;6606;49.154;9.280;2023-02-13T11:24:18;101690.09;;;8.73;100.00
13080;BME280;6606;49.154;9.280;2023-02-13T11:27:03;101688.38;;;8.68;100.00
13080;BME280;6606;49.154;9.280;2023-02-13T11:29:54;101694.72;;;8.53;100.00
13080;BME280;6606;49.154;9.280;2023-02-13T11:32:36;101684.72;;;8.81;100.00
13080;BME280;6606;49.154;9.280;2023-02-13T11:35:27;101684.59;;;8.93;100.00
13080;BME280;6606;49.154;9.280;2023-02-13T11:38:21;101681.13;;;8.88;100.00
13080;BME280;6606;49.154;9.280;2023-02-13T11:41:06;101683.84;;;8.80;100.00
13080;BME280;6606;49.154;9.280;2023-02-13T11:43:52;101676.44;;;9.10;100.00
13080;BME280;6606;49.154;9.280;2023-02-13T11:46:45;101676.78;;;8.83;100.00
13080;BME280;6606;49.154;9.280;2023-02-13T11:49:29;101672.81;;;9.22;100.00
13080;BME280;6606;49.154;9.280;2023-02-13T11:52:22;101678.53;;;9.55;100.00
13080;BME280;6606;49.154;9.280;2023-02-13T11:55:25;101675.88;;;9.55;100.00
13080;BME280;6606;49.154;9.280;2023-02-13T11:58:22;101674.00;;;9.64;100.00
13080;BME280;6606;49.154;9.280;2023-02-13T12:01:21;101663.13;;;9.83;100.00
13080;BME280;6606;49.154;9.280;2023-02-13T12:04:05;101671.72;;;10.00;100.00
13080;BME280;6606;49.154;9.280;2023-02-13T12:06:58;101672.34;;;10.15;100.00
13080;BME280;6606;49.154;9.280;2023-02-13T12:09:41;101665.91;;;10.32;100.00
13080;BME280;6606;49.154;9.280;2023-02-13T12:12:39;101662.09;;;10.47;100.00
13080;BME280;6606;49.154;9.280;2023-02-13T12:15:25;101657.00;;;10.37;100.00
13080;BME280;6606;49.154;9.280;2023-02-13T12:18:15;101656.00;;;10.42;100.00
13080;BME280;6606;49.154;9.280;2023-02-13T12:21:04;101649.94;;;10.36;100.00
13080;BME280;6606;49.154;9.280;2023-02-13T12:23:56;101637.03;;;10.67;100.00
13080;BME280;6606;49.154;9.280;2023-02-13T12:26:43;101643.91;;;10.77;100.00
13080;BME280;6606;49.154;9.280;2023-02-13T12:29:51;101634.44;;;11.09;100.00
13080;BME280;6606;49.154;9.280;2023-02-13T12:32:47;101636.03;;;10.72;100.00
13080;BME280;6606;49.154;9.280;2023-02-13T12:35:46;101634.91;;;10.84;100.00
13080;BME280;6606;49.154;9.280;2023-02-13T12:38:43;101632.84;;;10.98;100.00
13080;BME280;6606;49.154;9.280;2023-02-13T12:41:35;101627.00;;;10.81;100.00
13080;BME280;6606;49.154;9.280;2023-02-13T12:44:35;101626.28;;;11.16;100.00
13080;BME280;6606;49.154;9.280;2023-02-13T12:47:22;101619.69;;;10.92;100.00
13080;BME280;6606;49.154;9.280;2023-02-13T12:50:15;101618.44;;;11.12;100.00
13080;BME280;6606;49.154;9.280;2023-02-13T12:53:23;101618.44;;;11.12;100.00
13080;BME280;6606;49.154;9.280;2023-02-13T12:56:32;101618.59;;;11.03;100.00
13080;BME280;6606;49.154;9.280;2023-02-13T12:59:25;101614.44;;;11.33;100.00
13080;BME280;6606;49.154;9.280;2023-02-13T13:05:36;101619.09;;;11.62;100.00
13080;BME280;6606;49.154;9.280;2023-02-13T13:08:30;101606.50;;;11.30;100.00
13080;BME280;6606;49.154;9.280;2023-02-13T13:11:27;101611.06;;;11.63;100.00
13080;BME280;6606;49.154;9.280;2023-02-13T13:14:17;101603.00;;;11.68;100.00
13080;BME280;6606;49.154;9.280;2023-02-13T13:17:06;101599.94;;;11.85;100.00
13080;BME280;6606;49.154;9.280;2023-02-13T13:19:59;101588.78;;;11.69;100.00
13080;BME280;6606;49.154;9.280;2023-02-13T13:22:48;101590.19;;;11.85;100.00
13080;BME280;6606;49.154;9.280;2023-02-13T13:25:35;101590.94;;;11.92;100.00
13080;BME280;6606;49.154;9.280;2023-02-13T13:28:22;101588.16;;;11.97;100.00
13080;BME280;6606;49.154;9.280;2023-02-13T13:31:06;101598.81;;;11.97;100.00
13080;BME280;6606;49.154;9.280;2023-02-13T13:33:48;101585.63;;;11.92;100.00
13080;BME280;6606;49.154;9.280;2023-02-13T13:36:37;101582.03;;;11.93;100.00
13080;BME280;6606;49.154;9.280;2023-02-13T13:39:35;101581.94;;;11.98;100.00
13080;BME280;6606;49.154;9.280;2023-02-13T13:42:33;101591.31;;;12.13;100.00
13080;BME280;6606;49.154;9.280;2023-02-13T13:45:29;101582.50;;;12.10;100.00
13080;BME280;6606;49.154;9.280;2023-02-13T13:48:25;101581.91;;;12.34;100.00
13080;BME280;6606;49.154;9.280;2023-02-13T13:51:13;101571.34;;;12.30;100.00
13080;BME280;6606;49.154;9.280;2023-02-13T13:54:36;101571.25;;;12.34;100.00
13080;BME280;6606;49.154;9.280;2023-02-13T13:57:19;101572.06;;;12.36;100.00
13080;BME280;6606;49.154;9.280;2023-02-13T14:00:23;101572.06;;;12.36;100.00
13080;BME280;6606;49.154;9.280;2023-02-13T14:03:30;101567.59;;;12.38;100.00
13080;BME280;6606;49.154;9.280;2023-02-13T14:06:24;101566.25;;;12.54;100.00
13080;BME280;6606;49.154;9.280;2023-02-13T14:09:37;101564.09;;;12.36;100.00
13080;BME280;6606;49.154;9.280;2023-02-13T14:12:36;101560.25;;;12.46;100.00
13080;BME280;6606;49.154;9.280;2023-02-13T14:18:34;101564.25;;;12.31;100.00
13080;BME280;6606;49.154;9.280;2023-02-13T14:21:21;101559.13;;;12.23;100.00
13080;BME280;6606;49.154;9.280;2023-02-13T14:24:21;101561.78;;;12.23;100.00
13080;BME280;6606;49.154;9.280;2023-02-13T14:27:20;101549.91;;;12.37;100.00
13080;BME280;6606;49.154;9.280;2023-02-13T14:34:41;101557.13;;;12.31;100.00
13080;BME280;6606;49.154;9.280;2023-02-13T14:37:31;101552.28;;;12.46;100.00
13080;BME280;6606;49.154;9.280;2023-02-13T14:40:41;101546.88;;;12.49;100.00
13080;BME280;6606;49.154;9.280;2023-02-13T14:43:32;101552.50;;;12.38;100.00
13080;BME280;6606;49.154;9.280;2023-02-13T14:46:23;101547.91;;;12.43;100.00
13080;BME280;6606;49.154;9.280;2023-02-13T14:49:33;101550.97;;;12.62;100.00
13080;BME280;6606;49.154;9.280;2023-02-13T14:52:19;101544.75;;;12.30;100.00
13080;BME280;6606;49.154;9.280;2023-02-13T14:55:17;101544.75;;;12.30;100.00
13080;BME280;6606;49.154;9.280;2023-02-13T14:58:05;101539.00;;;12.46;100.00
13080;BME280;6606;49.154;9.280;2023-02-13T15:00:53;101549.38;;;12.22;100.00